sensor_id;sensor_type;location;lat;lon;timestamp;pressure;altitude;pressure_sealevel;temperature;humidity
48630;BME280;34426;52.180;4.462;2023-07-31T00:01:47;101012.69;;;16.65;100.00
48630;BME280;34426;52.180;4.462;2023-07-31T00:04:12;100998.00;;;16.62;100.00
48630;BME280;34426;52.180;4.462;2023-07-31T00:06:39;101001.97;;;16.61;100.00
48630;BME280;34426;52.180;4.462;2023-07-31T00:09:04;101006.25;;;16.59;100.00
48630;BME280;34426;52.180;4.462;2023-07-31T00:11:30;101009.38;;;16.57;100.00
48630;BME280;34426;52.180;4.462;2023-07-31T00:13:55;101008.53;;;16.57;100.00
48630;BME280;34426;52.180;4.462;2023-07-31T00:16:21;101005.78;;;16.52;100.00
48630;BME280;34426;52.180;4.462;2023-07-31T00:18:47;101001.13;;;16.42;100.00
48630;BME280;34426;52.180;4.462;2023-07-31T00:21:12;101009.19;;;16.30;100.00
48630;BME280;34426;52.180;4.462;2023-07-31T00:23:39;100989.56;;;16.20;100.00
48630;BME280;34426;52.180;4.462;2023-07-31T00:26:04;100996.38;;;16.19;100.00
48630;BME280;34426;52.180;4.462;2023-07-31T00:28:30;101002.00;;;16.19;100.00
48630;BME280;34426;52.180;4.462;2023-07-31T00:30:55;101015.28;;;16.18;100.00
48630;BME280;34426;52.180;4.462;2023-07-31T00:33:21;100992.41;;;16.20;100.00
48630;BME280;34426;52.180;4.462;2023-07-31T00:35:48;101000.56;;;16.21;100.00
48630;BME280;34426;52.180;4.462;2023-07-31T00:38:14;100984.47;;;16.22;100.00
48630;BME280;34426;52.180;4.462;2023-07-31T00:40:41;100979.91;;;16.26;100.00
48630;BME280;34426;52.180;4.462;2023-07-31T00:43:06;100988.31;;;16.31;100.00
48630;BME280;34426;52.180;4.462;2023-07-31T00:45:32;100984.81;;;16.39;100.00
48630;BME280;34426;52.180;4.462;2023-07-31T00:47:58;100984.81;;;16.39;100.00
48630;BME280;34426;52.180;4.462;2023-07-31T00:50:25;100980.84;;;16.40;100.00
48630;BME280;34426;52.180;4.462;2023-07-31T00:52:50;100975.63;;;16.47;100.00
48630;BME280;34426;52.180;4.462;2023-07-31T00:55:16;100987.16;;;16.51;100.00
48630;BME280;34426;52.180;4.462;2023-07-31T00:57:45;100968.75;;;16.53;100.00
48630;BME280;34426;52.180;4.462;2023-07-31T01:00:11;100976.41;;;16.53;100.00
48630;BME280;34426;52.180;4.462;2023-07-31T01:02:37;100990.81;;;16.51;100.00
48630;BME280;34426;52.180;4.462;2023-07-31T01:05:03;100990.88;;;16.46;100.00
48630;BME280;34426;52.180;4.462;2023-07-31T01:07:36;100976.56;;;16.43;100.00
48630;BME280;34426;52.180;4.462;2023-07-31T01:10:10;100980.84;;;16.40;100.00
48630;BME280;34426;52.180;4.462;2023-07-31T01:12:37;100974.66;;;16.38;100.00
48630;BME280;34426;52.180;4.462;2023-07-31T01:15:06;100967.56;;;16.41;100.00
48630;BME280;34426;52.180;4.462;2023-07-31T01:17:32;100966.72;;;16.40;100.00
48630;BME280;34426;52.180;4.462;2023-07-31T01:20:01;100963.00;;;16.45;100.00
48630;BME280;34426;52.180;4.462;2023-07-31T01:22:53;100958.69;;;16.47;100.00
48630;BME280;34426;52.180;4.462;2023-07-31T01:25:54;100963.72;;;16.50;100.00
48630;BME280;34426;52.180;4.462;2023-07-31T01:28:24;100965.94;;;16.53;100.00
48630;BME280;34426;52.180;4.462;2023-07-31T01:30:50;100976.69;;;16.51;100.00
48630;BME280;34426;52.180;4.462;2023-07-31T01:33:16;100963.13;;;16.53;100.00
48630;BME280;34426;52.180;4.462;2023-07-31T01:35:44;100961.44;;;16.52;100.00
48630;BME280;34426;52.180;4.462;2023-07-31T01:38:10;100980.91;;;16.54;100.00
48630;BME280;34426;52.180;4.462;2023-07-31T01:40:35;100963.13;;;16.53;100.00
48630;BME280;34426;52.180;4.462;2023-07-31T01:43:02;100954.66;;;16.53;100.00
48630;BME280;34426;52.180;4.462;2023-07-31T01:45:28;100945.03;;;16.54;100.00
48630;BME280;34426;52.180;4.462;2023-07-31T01:47:53;100944.19;;;16.54;100.00
48630;BME280;34426;52.180;4.462;2023-07-31T01:50:19;100949.53;;;16.55;100.00
48630;BME280;34426;52.180;4.462;2023-07-31T01:52:44;100943.88;;;16.55;100.00
48630;BME280;34426;52.180;4.462;2023-07-31T01:55:10;100943.88;;;16.55;100.00
48630;BME280;34426;52.180;4.462;2023-07-31T01:57:36;100924.66;;;16.57;100.00
48630;BME280;34426;52.180;4.462;2023-07-31T02:00:05;100925.50;;;16.58;100.00
48630;BME280;34426;52.180;4.462;2023-07-31T02:02:30;100924.03;;;16.60;100.00
48630;BME280;34426;52.180;4.462;2023-07-31T02:04:56;100909.31;;;16.63;100.00
48630;BME280;34426;52.180;4.462;2023-07-31T02:07:21;100910.19;;;16.64;100.00
48630;BME280;34426;52.180;4.462;2023-07-31T02:09:47;100911.53;;;16.67;100.00
48630;BME280;34426;52.180;4.462;2023-07-31T02:12:12;100913.22;;;16.68;100.00
48630;BME280;34426;52.180;4.462;2023-07-31T02:14:38;100920.56;;;16.69;100.00
48630;BME280;34426;52.180;4.462;2023-07-31T02:17:05;100906.97;;;16.71;100.00
48630;BME280;34426;52.180;4.462;2023-07-31T02:19:31;100915.97;;;16.73;100.00
48630;BME280;34426;52.180;4.462;2023-07-31T02:21:56;100918.78;;;16.73;100.00
48630;BME280;34426;52.180;4.462;2023-07-31T02:24:23;100908.03;;;16.75;100.00
48630;BME280;34426;52.180;4.462;2023-07-31T02:26:49;100910.31;;;16.73;100.00
48630;BME280;34426;52.180;4.462;2023-07-31T02:29:14;100901.53;;;16.74;100.00
48630;BME280;34426;52.180;4.462;2023-07-31T02:31:40;100897.56;;;16.75;100.00
48630;BME280;34426;52.180;4.462;2023-07-31T02:34:07;100907.09;;;16.79;100.00
48630;BME280;34426;52.180;4.462;2023-07-31T02:36:32;100895.50;;;16.81;100.00
48630;BME280;34426;52.180;4.462;2023-07-31T02:38:58;100893.19;;;16.83;100.00
48630;BME280;34426;52.180;4.462;2023-07-31T02:41:23;100892.91;;;16.84;100.00
48630;BME280;34426;52.180;4.462;2023-07-31T02:43:49;100890.91;;;16.85;100.00
48630;BME280;34426;52.180;4.462;2023-07-31T02:46:14;100886.09;;;16.85;100.00
48630;BME280;34426;52.180;4.462;2023-07-31T02:48:40;100880.13;;;16.87;99.87
48630;BME280;34426;52.180;4.462;2023-07-31T02:51:07;100870.81;;;16.86;99.67
48630;BME280;34426;52.180;4.462;2023-07-31T02:53:32;100862.03;;;16.88;99.13
48630;BME280;34426;52.180;4.462;2023-07-31T02:55:58;100881.50;;;16.89;99.16
48630;BME280;34426;52.180;4.462;2023-07-31T02:58:23;100869.03;;;16.90;98.56
48630;BME280;34426;52.180;4.462;2023-07-31T03:00:49;100872.69;;;16.91;98.76
48630;BME280;34426;52.180;4.462;2023-07-31T03:03:14;100866.19;;;16.90;98.94
48630;BME280;34426;52.180;4.462;2023-07-31T03:05:40;100861.38;;;16.91;99.20
48630;BME280;34426;52.180;4.462;2023-07-31T03:08:07;100865.34;;;16.90;98.91
48630;BME280;34426;52.180;4.462;2023-07-31T03:10:32;100864.22;;;16.91;98.69
48630;BME280;34426;52.180;4.462;2023-07-31T03:12:58;100867.03;;;16.91;98.67
48630;BME280;34426;52.180;4.462;2023-07-31T03:15:23;100867.03;;;16.91;98.78
48630;BME280;34426;52.180;4.462;2023-07-31T03:17:49;100863.72;;;16.89;99.11
48630;BME280;34426;52.180;4.462;2023-07-31T03:20:14;100854.06;;;16.90;99.25
48630;BME280;34426;52.180;4.462;2023-07-31T03:22:40;100860.97;;;16.84;99.96
48630;BME280;34426;52.180;4.462;2023-07-31T03:25:08;100875.19;;;16.79;100.00
48630;BME280;34426;52.180;4.462;2023-07-31T03:27:34;100862.38;;;16.68;100.00
48630;BME280;34426;52.180;4.462;2023-07-31T03:29:59;100856.50;;;16.64;100.00
48630;BME280;34426;52.180;4.462;2023-07-31T03:32:25;100853.13;;;16.62;100.00
48630;BME280;34426;52.180;4.462;2023-07-31T03:34:50;100847.56;;;16.57;100.00
48630;BME280;34426;52.180;4.462;2023-07-31T03:37:16;100851.31;;;16.52;100.00
48630;BME280;34426;52.180;4.462;2023-07-31T03:39:41;100841.56;;;16.45;100.00
48630;BME280;34426;52.180;4.462;2023-07-31T03:42:08;100835.09;;;16.44;100.00
48630;BME280;34426;52.180;4.462;2023-07-31T03:44:34;100835.09;;;16.44;100.00
48630;BME280;34426;52.180;4.462;2023-07-31T03:46:59;100835.94;;;16.45;100.00
48630;BME280;34426;52.180;4.462;2023-07-31T03:49:25;100834.44;;;16.47;100.00
48630;BME280;34426;52.180;4.462;2023-07-31T03:51:50;100818.34;;;16.48;100.00
48630;BME280;34426;52.180;4.462;2023-07-31T03:54:16;100823.16;;;16.47;100.00
48630;BME280;34426;52.180;4.462;2023-07-31T03:56:41;100821.38;;;16.51;100.00
48630;BME280;34426;52.180;4.462;2023-07-31T03:59:08;100810.63;;;16.53;100.00
48630;BME280;34426;52.180;4.462;2023-07-31T04:01:33;100819.19;;;16.48;100.00
48630;BME280;34426;52.180;4.462;2023-07-31T04:03:59;100816.47;;;16.43;100.00
48630;BME280;34426;52.180;4.462;2023-07-31T04:06:24;100812.06;;;16.37;100.00
48630;BME280;34426;52.180;4.462;2023-07-31T04:08:50;100818.31;;;16.34;100.00
48630;BME280;34426;52.180;4.462;2023-07-31T04:11:15;100808.78;;;16.30;100.00
48630;BME280;34426;52.180;4.462;2023-07-31T04:13:41;100804.81;;;16.31;100.00
48630;BME280;34426;52.180;4.462;2023-07-31T04:16:08;100800.31;;;16.30;100.00
48630;BME280;34426;52.180;4.462;2023-07-31T04:18:34;100793.84;;;16.29;100.00
48630;BME280;34426;52.180;4.462;2023-07-31T04:20:59;100786.19;;;16.30;100.00
48630;BME280;34426;52.180;4.462;2023-07-31T04:23:25;100793.00;;;16.29;100.00
48630;BME280;34426;52.180;4.462;2023-07-31T04:25:50;100779.72;;;16.29;100.00
48630;BME280;34426;52.180;4.462;2023-07-31T04:28:16;100777.44;;;16.32;100.00
48630;BME280;34426;52.180;4.462;2023-07-31T04:30:41;100771.47;;;16.33;100.00
48630;BME280;34426;52.180;4.462;2023-07-31T04:33:08;100769.78;;;16.32;100.00
48630;BME280;34426;52.180;4.462;2023-07-31T04:35:34;100768.13;;;16.31;100.00
48630;BME280;34426;52.180;4.462;2023-07-31T04:37:59;100778.34;;;16.27;100.00
48630;BME280;34426;52.180;4.462;2023-07-31T04:40:25;100772.31;;;16.34;100.00
48630;BME280;34426;52.180;4.462;2023-07-31T04:42:51;100764.69;;;16.34;100.00
48630;BME280;34426;52.180;4.462;2023-07-31T04:45:16;100764.38;;;16.36;100.00
48630;BME280;34426;52.180;4.462;2023-07-31T04:47:42;100761.56;;;16.36;100.00
48630;BME280;34426;52.180;4.462;2023-07-31T04:50:10;100763.53;;;16.35;100.00
48630;BME280;34426;52.180;4.462;2023-07-31T04:52:35;100761.25;;;16.37;100.00
48630;BME280;34426;52.180;4.462;2023-07-31T04:55:00;100757.88;;;16.35;100.00
48630;BME280;34426;52.180;4.462;2023-07-31T04:57:26;100747.44;;;16.36;100.00
48630;BME280;34426;52.180;4.462;2023-07-31T04:59:52;100760.41;;;16.37;100.00
48630;BME280;34426;52.180;4.462;2023-07-31T05:02:17;100749.94;;;16.37;100.00
48630;BME280;34426;52.180;4.462;2023-07-31T05:04:43;100748.88;;;16.33;100.00
48630;BME280;34426;52.180;4.462;2023-07-31T05:07:10;100750.47;;;16.39;100.00
48630;BME280;34426;52.180;4.462;2023-07-31T05:09:35;100744.00;;;16.39;100.00
48630;BME280;34426;52.180;4.462;2023-07-31T05:12:01;100745.38;;;16.41;100.00
48630;BME280;34426;52.180;4.462;2023-07-31T05:14:26;100735.22;;;16.40;100.00
48630;BME280;34426;52.180;4.462;2023-07-31T05:16:52;100731.56;;;16.40;100.00
48630;BME280;34426;52.180;4.462;2023-07-31T05:19:17;100738.88;;;16.41;100.00
48630;BME280;34426;52.180;4.462;2023-07-31T05:21:43;100724.44;;;16.42;100.00
48630;BME280;34426;52.180;4.462;2023-07-31T05:24:10;100728.66;;;16.45;100.00
48630;BME280;34426;52.180;4.462;2023-07-31T05:26:36;100735.97;;;16.46;100.00
48630;BME280;34426;52.180;4.462;2023-07-31T05:29:01;100720.19;;;16.45;100.00
48630;BME280;34426;52.180;4.462;2023-07-31T05:31:27;100717.84;;;16.47;100.00
48630;BME280;34426;52.180;4.462;2023-07-31T05:33:52;100722.66;;;16.46;100.00
48630;BME280;34426;52.180;4.462;2023-07-31T05:36:18;100708.53;;;16.46;100.00
48630;BME280;34426;52.180;4.462;2023-07-31T05:38:43;100714.19;;;16.46;100.00
48630;BME280;34426;52.180;4.462;2023-07-31T05:41:11;100711.88;;;16.48;100.00
48630;BME280;34426;52.180;4.462;2023-07-31T05:43:36;100720.06;;;16.50;100.00
48630;BME280;34426;52.180;4.462;2023-07-31T05:46:02;100714.63;;;16.53;100.00
48630;BME280;34426;52.180;4.462;2023-07-31T05:48:28;100717.97;;;16.55;100.00
48630;BME280;34426;52.180;4.462;2023-07-31T05:50:53;100724.16;;;16.57;100.00
48630;BME280;34426;52.180;4.462;2023-07-31T05:53:19;100704.59;;;16.61;100.00
48630;BME280;34426;52.180;4.462;2023-07-31T05:55:44;100710.25;;;16.61;100.00
48630;BME280;34426;52.180;4.462;2023-07-31T05:58:11;100700.63;;;16.62;100.00
48630;BME280;34426;52.180;4.462;2023-07-31T06:00:37;100700.63;;;16.62;100.00
48630;BME280;34426;52.180;4.462;2023-07-31T06:03:02;100695.28;;;16.60;100.00
48630;BME280;34426;52.180;4.462;2023-07-31T06:05:28;100698.09;;;16.60;100.00
48630;BME280;34426;52.180;4.462;2023-07-31T06:07:54;100697.47;;;16.63;100.00
48630;BME280;34426;52.180;4.462;2023-07-31T06:10:19;100699.19;;;16.65;100.00
48630;BME280;34426;52.180;4.462;2023-07-31T06:12:45;100694.06;;;16.67;100.00
48630;BME280;34426;52.180;4.462;2023-07-31T06:15:11;100691.78;;;16.69;100.00
48630;BME280;34426;52.180;4.462;2023-07-31T06:17:37;100690.63;;;16.70;100.00
48630;BME280;34426;52.180;4.462;2023-07-31T06:20:03;100688.94;;;16.69;100.00
48630;BME280;34426;52.180;4.462;2023-07-31T06:22:29;100695.66;;;16.73;100.00
48630;BME280;34426;52.180;4.462;2023-07-31T06:24:54;100685.41;;;16.77;100.00
48630;BME280;34426;52.180;4.462;2023-07-31T06:27:20;100690.22;;;16.76;100.00
48630;BME280;34426;52.180;4.462;2023-07-31T06:29:45;100676.28;;;16.80;100.00
48630;BME280;34426;52.180;4.462;2023-07-31T06:32:12;100663.84;;;16.81;100.00
48630;BME280;34426;52.180;4.462;2023-07-31T06:34:38;100671.78;;;16.79;100.00
48630;BME280;34426;52.180;4.462;2023-07-31T06:37:04;100674.31;;;16.80;100.00
48630;BME280;34426;52.180;4.462;2023-07-31T06:39:29;100672.00;;;16.82;100.00
48630;BME280;34426;52.180;4.462;2023-07-31T06:41:55;100664.06;;;16.84;100.00
48630;BME280;34426;52.180;4.462;2023-07-31T06:44:20;100673.06;;;16.86;100.00
48630;BME280;34426;52.180;4.462;2023-07-31T06:46:46;100660.91;;;16.86;100.00
48630;BME280;34426;52.180;4.462;2023-07-31T06:49:13;100662.59;;;16.87;100.00
48630;BME280;34426;52.180;4.462;2023-07-31T06:51:38;100664.44;;;16.91;100.00
48630;BME280;34426;52.180;4.462;2023-07-31T06:54:04;100662.97;;;16.94;100.00
48630;BME280;34426;52.180;4.462;2023-07-31T06:56:29;100655.66;;;16.93;100.00
48630;BME280;34426;52.180;4.462;2023-07-31T06:58:55;100663.81;;;16.94;100.00
48630;BME280;34426;52.180;4.462;2023-07-31T07:01:20;100665.81;;;16.94;100.00
48630;BME280;34426;52.180;4.462;2023-07-31T07:03:46;100667.78;;;16.93;100.00
48630;BME280;34426;52.180;4.462;2023-07-31T07:06:13;100657.53;;;16.98;100.00
48630;BME280;34426;52.180;4.462;2023-07-31T07:08:38;100666.84;;;16.98;100.00
48630;BME280;34426;52.180;4.462;2023-07-31T07:11:04;100673.84;;;17.01;100.00
48630;BME280;34426;52.180;4.462;2023-07-31T07:13:29;100659.41;;;17.02;100.00
48630;BME280;34426;52.180;4.462;2023-07-31T07:15:55;100668.94;;;17.06;100.00
48630;BME280;34426;52.180;4.462;2023-07-31T07:18:20;100671.75;;;17.06;100.00
48630;BME280;34426;52.180;4.462;2023-07-31T07:20:47;100662.13;;;17.07;100.00
48630;BME280;34426;52.180;4.462;2023-07-31T07:23:13;100671.34;;;17.13;100.00
48630;BME280;34426;52.180;4.462;2023-07-31T07:25:39;100668.19;;;17.14;100.00
48630;BME280;34426;52.180;4.462;2023-07-31T07:28:04;100667.56;;;17.17;100.00
48630;BME280;34426;52.180;4.462;2023-07-31T07:30:30;100665.25;;;17.19;100.00
48630;BME280;34426;52.180;4.462;2023-07-31T07:32:55;100656.25;;;17.17;100.00
48630;BME280;34426;52.180;4.462;2023-07-31T07:35:21;100674.88;;;17.18;100.00
48630;BME280;34426;52.180;4.462;2023-07-31T07:37:48;100666.09;;;17.20;100.00
48630;BME280;34426;52.180;4.462;2023-07-31T07:40:15;100671.94;;;17.23;100.00
48630;BME280;34426;52.180;4.462;2023-07-31T07:42:40;100671.94;;;17.23;100.00
48630;BME280;34426;52.180;4.462;2023-07-31T07:45:07;100667.97;;;17.24;100.00
48630;BME280;34426;52.180;4.462;2023-07-31T07:47:33;100669.84;;;17.29;100.00
48630;BME280;34426;52.180;4.462;2023-07-31T07:49:58;100668.38;;;17.32;100.00
48630;BME280;34426;52.180;4.462;2023-07-31T07:52:24;100664.25;;;17.38;100.00
48630;BME280;34426;52.180;4.462;2023-07-31T07:54:49;100658.78;;;17.41;100.00
48630;BME280;34426;52.180;4.462;2023-07-31T07:57:16;100662.97;;;17.44;100.00
48630;BME280;34426;52.180;4.462;2023-07-31T07:59:42;100666.00;;;17.47;100.00
48630;BME280;34426;52.180;4.462;2023-07-31T08:02:07;100653.44;;;17.53;100.00
48630;BME280;34426;52.180;4.462;2023-07-31T08:04:33;100659.78;;;17.59;100.00
48630;BME280;34426;52.180;4.462;2023-07-31T08:06:58;100645.34;;;17.60;100.00
48630;BME280;34426;52.180;4.462;2023-07-31T08:09:24;100652.97;;;17.60;100.00
48630;BME280;34426;52.180;4.462;2023-07-31T08:11:49;100665.25;;;17.55;100.00
48630;BME280;34426;52.180;4.462;2023-07-31T08:14:16;100654.91;;;17.51;100.00
48630;BME280;34426;52.180;4.462;2023-07-31T08:16:42;100657.59;;;17.56;100.00
48630;BME280;34426;52.180;4.462;2023-07-31T08:19:07;100649.31;;;17.59;100.00
48630;BME280;34426;52.180;4.462;2023-07-31T08:21:33;100640.63;;;17.56;100.00
48630;BME280;34426;52.180;4.462;2023-07-31T08:23:58;100648.59;;;17.54;100.00
48630;BME280;34426;52.180;4.462;2023-07-31T08:26:24;100650.47;;;17.58;100.00
48630;BME280;34426;52.180;4.462;2023-07-31T08:28:50;100646.81;;;17.58;100.00
48630;BME280;34426;52.180;4.462;2023-07-31T08:31:16;100633.63;;;17.67;100.00
48630;BME280;34426;52.180;4.462;2023-07-31T08:33:42;100631.16;;;17.74;100.00
48630;BME280;34426;52.180;4.462;2023-07-31T08:36:08;100633.34;;;17.77;100.00
48630;BME280;34426;52.180;4.462;2023-07-31T08:38:33;100645.47;;;17.78;100.00
48630;BME280;34426;52.180;4.462;2023-07-31T08:40:59;100641.19;;;17.80;100.00
48630;BME280;34426;52.180;4.462;2023-07-31T08:43:25;100635.00;;;17.78;100.00
48630;BME280;34426;52.180;4.462;2023-07-31T08:45:51;100634.84;;;17.75;100.00
48630;BME280;34426;52.180;4.462;2023-07-31T08:48:19;100640.03;;;17.81;100.00
48630;BME280;34426;52.180;4.462;2023-07-31T08:50:45;100637.31;;;17.76;100.00
48630;BME280;34426;52.180;4.462;2023-07-31T08:53:10;100638.88;;;17.82;100.00
48630;BME280;34426;52.180;4.462;2023-07-31T08:55:37;100640.03;;;17.81;100.00
48630;BME280;34426;52.180;4.462;2023-07-31T08:58:04;100632.38;;;17.82;100.00
48630;BME280;34426;52.180;4.462;2023-07-31T09:00:30;100640.53;;;17.83;100.00
48630;BME280;34426;52.180;4.462;2023-07-31T09:03:01;100635.50;;;17.80;100.00
48630;BME280;34426;52.180;4.462;2023-07-31T09:05:30;100647.31;;;17.74;100.00
48630;BME280;34426;52.180;4.462;2023-07-31T09:07:56;100639.97;;;17.73;100.00
48630;BME280;34426;52.180;4.462;2023-07-31T09:10:22;100643.31;;;17.75;100.00
48630;BME280;34426;52.180;4.462;2023-07-31T09:12:48;100635.00;;;17.78;100.00
48630;BME280;34426;52.180;4.462;2023-07-31T09:15:14;100632.03;;;17.83;100.00
48630;BME280;34426;52.180;4.462;2023-07-31T09:17:40;100630.56;;;17.86;100.00
48630;BME280;34426;52.180;4.462;2023-07-31T09:20:16;100648.91;;;17.88;100.00
48630;BME280;34426;52.180;4.462;2023-07-31T09:22:44;100638.09;;;17.90;100.00
48630;BME280;34426;52.180;4.462;2023-07-31T09:25:17;100637.78;;;17.92;100.00
48630;BME280;34426;52.180;4.462;2023-07-31T09:27:46;100637.00;;;18.00;100.00
48630;BME280;34426;52.180;4.462;2023-07-31T09:30:12;100640.47;;;17.97;100.00
48630;BME280;34426;52.180;4.462;2023-07-31T09:32:38;100638.16;;;17.99;100.00
48630;BME280;34426;52.180;4.462;2023-07-31T09:35:13;100641.69;;;18.05;100.00
48630;BME280;34426;52.180;4.462;2023-07-31T09:37:38;100638.72;;;18.10;100.00
48630;BME280;34426;52.180;4.462;2023-07-31T09:40:06;100623.66;;;18.32;100.00
48630;BME280;34426;52.180;4.462;2023-07-31T09:42:34;100628.31;;;18.58;100.00
48630;BME280;34426;52.180;4.462;2023-07-31T09:45:07;100625.09;;;18.51;100.00
48630;BME280;34426;52.180;4.462;2023-07-31T09:47:33;100625.91;;;18.43;100.00
48630;BME280;34426;52.180;4.462;2023-07-31T09:49:58;100629.09;;;18.50;100.00
48630;BME280;34426;52.180;4.462;2023-07-31T09:52:25;100631.56;;;18.43;100.00
48630;BME280;34426;52.180;4.462;2023-07-31T09:54:51;100617.16;;;18.31;100.00
48630;BME280;34426;52.180;4.462;2023-07-31T09:57:21;100637.31;;;18.29;100.00
48630;BME280;34426;52.180;4.462;2023-07-31T09:59:47;100628.38;;;18.36;100.00
48630;BME280;34426;52.180;4.462;2023-07-31T10:02:17;100632.94;;;18.54;100.00
48630;BME280;34426;52.180;4.462;2023-07-31T10:04:45;100629.09;;;18.50;100.00
48630;BME280;34426;52.180;4.462;2023-07-31T10:07:13;100627.63;;;18.53;100.00
48630;BME280;34426;52.180;4.462;2023-07-31T10:09:39;100631.47;;;18.57;100.00
48630;BME280;34426;52.180;4.462;2023-07-31T10:12:08;100631.00;;;18.64;100.00
48630;BME280;34426;52.180;4.462;2023-07-31T10:14:38;100636.38;;;18.74;100.00
48630;BME280;34426;52.180;4.462;2023-07-31T10:17:04;100634.03;;;18.76;100.00
48630;BME280;34426;52.180;4.462;2023-07-31T10:19:31;100624.06;;;18.78;100.00
48630;BME280;34426;52.180;4.462;2023-07-31T10:21:57;100635.28;;;18.92;100.00
48630;BME280;34426;52.180;4.462;2023-07-31T10:24:23;100635.41;;;18.87;100.00
48630;BME280;34426;52.180;4.462;2023-07-31T10:26:52;100633.59;;;18.91;100.00
48630;BME280;34426;52.180;4.462;2023-07-31T10:29:19;100635.78;;;18.94;100.00
48630;BME280;34426;52.180;4.462;2023-07-31T10:31:47;100637.81;;;19.02;99.91
48630;BME280;34426;52.180;4.462;2023-07-31T10:34:14;100642.31;;;19.03;99.74
48630;BME280;34426;52.180;4.462;2023-07-31T10:36:40;100630.78;;;19.08;100.00
48630;BME280;34426;52.180;4.462;2023-07-31T10:39:35;100639.13;;;19.13;99.14
48630;BME280;34426;52.180;4.462;2023-07-31T10:42:09;100626.78;;;19.09;98.62
48630;BME280;34426;52.180;4.462;2023-07-31T10:44:35;100626.13;;;19.12;98.25
48630;BME280;34426;52.180;4.462;2023-07-31T10:47:02;100646.31;;;19.19;97.38
48630;BME280;34426;52.180;4.462;2023-07-31T10:49:29;100629.16;;;19.24;96.83
48630;BME280;34426;52.180;4.462;2023-07-31T10:51:55;100637.81;;;19.19;96.56
48630;BME280;34426;52.180;4.462;2023-07-31T10:54:21;100642.97;;;19.17;96.46
48630;BME280;34426;52.180;4.462;2023-07-31T10:56:47;100640.97;;;19.18;96.33
48630;BME280;34426;52.180;4.462;2023-07-31T10:59:15;100644.00;;;19.21;95.98
48630;BME280;34426;52.180;4.462;2023-07-31T11:01:50;100629.81;;;19.21;94.32
48630;BME280;34426;52.180;4.462;2023-07-31T11:04:22;100622.00;;;19.44;95.68
48630;BME280;34426;52.180;4.462;2023-07-31T11:06:55;100626.19;;;19.64;94.83
48630;BME280;34426;52.180;4.462;2023-07-31T11:09:21;100638.53;;;19.68;93.73
48630;BME280;34426;52.180;4.462;2023-07-31T11:11:47;100615.66;;;19.56;92.30
48630;BME280;34426;52.180;4.462;2023-07-31T11:14:12;100631.03;;;19.72;93.04
48630;BME280;34426;52.180;4.462;2023-07-31T11:16:41;100616.16;;;19.58;92.99
48630;BME280;34426;52.180;4.462;2023-07-31T11:19:08;100619.66;;;19.55;93.88
48630;BME280;34426;52.180;4.462;2023-07-31T11:21:36;100610.00;;;19.65;92.97
48630;BME280;34426;52.180;4.462;2023-07-31T11:24:02;100577.28;;;19.58;92.08
48630;BME280;34426;52.180;4.462;2023-07-31T11:26:28;100593.97;;;19.51;92.48
48630;BME280;34426;52.180;4.462;2023-07-31T11:28:54;100589.78;;;19.49;92.78
48630;BME280;34426;52.180;4.462;2023-07-31T11:31:19;100608.13;;;19.34;93.07
48630;BME280;34426;52.180;4.462;2023-07-31T11:33:45;100589.28;;;19.30;93.48
48630;BME280;34426;52.180;4.462;2023-07-31T11:36:14;100603.81;;;19.37;93.44
48630;BME280;34426;52.180;4.462;2023-07-31T11:38:41;100603.97;;;19.49;92.70
48630;BME280;34426;52.180;4.462;2023-07-31T11:41:07;100607.81;;;19.53;92.72
48630;BME280;34426;52.180;4.462;2023-07-31T11:43:33;100599.97;;;19.41;92.02
48630;BME280;34426;52.180;4.462;2023-07-31T11:46:00;100615.31;;;19.40;92.77
48630;BME280;34426;52.180;4.462;2023-07-31T11:48:28;100624.66;;;19.41;92.97
48630;BME280;34426;52.180;4.462;2023-07-31T11:50:57;100620.66;;;19.42;92.77
48630;BME280;34426;52.180;4.462;2023-07-31T11:53:25;100619.31;;;19.39;92.67
48630;BME280;34426;52.180;4.462;2023-07-31T11:55:54;100651.84;;;19.24;92.92
48630;BME280;34426;52.180;4.462;2023-07-31T11:58:20;100623.31;;;19.21;93.30
48630;BME280;34426;52.180;4.462;2023-07-31T12:00:47;100620.13;;;19.22;92.61
48630;BME280;34426;52.180;4.462;2023-07-31T12:03:14;100633.50;;;19.39;92.88
48630;BME280;34426;52.180;4.462;2023-07-31T12:05:42;100608.31;;;19.46;92.71
48630;BME280;34426;52.180;4.462;2023-07-31T12:08:11;100595.31;;;19.54;91.92
48630;BME280;34426;52.180;4.462;2023-07-31T12:10:37;100593.63;;;19.53;91.44
48630;BME280;34426;52.180;4.462;2023-07-31T12:13:06;100599.47;;;19.48;91.59
48630;BME280;34426;52.180;4.462;2023-07-31T12:15:39;100580.94;;;19.42;91.46
48630;BME280;34426;52.180;4.462;2023-07-31T12:18:07;100586.47;;;19.47;91.89
48630;BME280;34426;52.180;4.462;2023-07-31T12:20:33;100581.78;;;19.34;91.69
48630;BME280;34426;52.180;4.462;2023-07-31T12:23:01;100585.28;;;19.39;91.96
48630;BME280;34426;52.180;4.462;2023-07-31T12:25:33;100594.31;;;19.41;92.75
48630;BME280;34426;52.180;4.462;2023-07-31T12:28:06;100594.78;;;19.35;93.63
48630;BME280;34426;52.180;4.462;2023-07-31T12:30:34;100593.44;;;19.23;94.19
48630;BME280;34426;52.180;4.462;2023-07-31T12:33:03;100573.75;;;19.18;94.56
48630;BME280;34426;52.180;4.462;2023-07-31T12:35:34;100577.78;;;19.35;94.14
48630;BME280;34426;52.180;4.462;2023-07-31T12:38:01;100563.25;;;19.53;93.32
48630;BME280;34426;52.180;4.462;2023-07-31T12:40:26;100554.56;;;19.76;92.23